Time;durP1;ratioP1;P1;durP2;ratioP2;P2;SDS_P1;SDS_P2;PMS_P1;PMS_P2;Temp;Humidity;BMP_temperature;BMP_pressure;BME280_temperature;BME280_humidity;BME280_pressure;Samples;Min_cycle;Max_cycle;Signal;HPM_P1;HPM_P2
2023/08/18 00:00:00;;;;;;;27.50;23.17;;;19.30;99.90;;;;;;5056472;28;20615;-51
2023/08/18 00:02:26;;;;;;;27.05;24.05;;;19.20;99.90;;;;;;5056032;28;20257;-49
2023/08/18 00:04:52;;;;;;;26.48;23.58;;;19.10;99.90;;;;;;5055967;28;20175;-52
2023/08/18 00:07:17;;;;;;;30.45;25.77;;;19.20;99.90;;;;;;5056178;28;20218;-51
2023/08/18 00:09:46;;;;;;;29.25;24.42;;;19.20;99.90;;;;;;5056074;28;20175;-50
2023/08/18 00:12:11;;;;;;;28.45;24.23;;;19.20;99.90;;;;;;5056205;28;20219;-49
2023/08/18 00:14:37;;;;;;;31.55;26.20;;;19.20;99.90;;;;;;5055988;28;20214;-49
2023/08/18 00:17:03;;;;;;;28.58;25.17;;;19.20;99.90;;;;;;5054838;28;20259;-51
2023/08/18 00:19:28;;;;;;;30.63;24.90;;;19.20;99.90;;;;;;5055148;28;20687;-49
2023/08/18 00:21:54;;;;;;;30.77;27.13;;;19.20;99.90;;;;;;5055665;28;20608;-53
2023/08/18 00:24:20;;;;;;;31.83;26.23;;;19.30;99.90;;;;;;5056382;28;20694;-51
2023/08/18 00:26:46;;;;;;;33.72;28.08;;;19.30;99.90;;;;;;5055690;28;20179;-51
2023/08/18 00:29:12;;;;;;;29.58;25.15;;;19.30;99.90;;;;;;5055644;28;20174;-49
2023/08/18 00:31:38;;;;;;;30.52;26.65;;;19.40;99.90;;;;;;5055532;28;20186;-50
2023/08/18 00:34:04;;;;;;;32.25;27.05;;;19.40;99.90;;;;;;5055325;28;20175;-52
2023/08/18 00:36:31;;;;;;;33.65;28.55;;;19.40;99.90;;;;;;5055829;28;20176;-51
2023/08/18 00:38:58;;;;;;;36.22;30.63;;;19.40;99.90;;;;;;5055464;28;20180;-52
2023/08/18 00:41:26;;;;;;;36.58;29.23;;;19.50;99.90;;;;;;5055349;28;20184;-47
2023/08/18 00:43:52;;;;;;;35.08;28.90;;;19.50;99.90;;;;;;5055682;28;20178;-50
2023/08/18 00:46:19;;;;;;;39.10;31.90;;;19.50;99.90;;;;;;5055220;28;20175;-53
2023/08/18 00:48:45;;;;;;;33.95;29.10;;;19.50;99.90;;;;;;5055044;28;20687;-51
2023/08/18 00:51:11;;;;;;;35.58;30.25;;;19.50;99.90;;;;;;5055243;28;20174;-47
2023/08/18 00:53:40;;;;;;;33.75;28.92;;;19.40;99.90;;;;;;5055195;28;20625;-49
2023/08/18 00:56:07;;;;;;;32.72;28.02;;;19.40;99.90;;;;;;5055141;28;20556;-50
2023/08/18 00:58:33;;;;;;;32.38;28.25;;;19.30;99.90;;;;;;5055107;28;20588;-52
2023/08/18 01:00:59;;;;;;;34.22;27.77;;;19.10;99.90;;;;;;5054884;28;20294;-53
2023/08/18 01:03:25;;;;;;;36.47;28.70;;;19.20;99.90;;;;;;5055048;28;20238;-51
2023/08/18 01:05:51;;;;;;;34.45;29.55;;;19.10;99.90;;;;;;5053702;28;20226;-50
2023/08/18 01:08:16;;;;;;;31.25;27.13;;;19.10;99.90;;;;;;5055161;28;20672;-52
2023/08/18 01:11:10;;;;;;;32.15;27.75;;;19.30;99.90;;;;;;5054721;28;20185;-52
2023/08/18 01:13:54;;;;;;;32.25;28.15;;;19.30;99.90;;;;;;5043248;28;20615;-47
2023/08/18 01:16:26;;;;;;;33.08;27.98;;;19.30;99.90;;;;;;5055078;28;20178;-53
2023/08/18 01:18:53;;;;;;;32.38;28.20;;;19.40;99.90;;;;;;5054377;28;20229;-50
2023/08/18 01:21:22;;;;;;;31.55;27.73;;;19.40;99.90;;;;;;5054539;28;20674;-51
2023/08/18 01:23:50;;;;;;;33.28;27.75;;;19.30;99.90;;;;;;5054509;28;20195;-49
2023/08/18 01:26:16;;;;;;;32.58;26.63;;;19.40;99.90;;;;;;5054448;28;20203;-51
2023/08/18 01:28:43;;;;;;;33.25;29.02;;;19.40;99.90;;;;;;5054179;28;20262;-50
2023/08/18 01:31:24;;;;;;;32.28;28.88;;;19.30;99.90;;;;;;5054860;28;20282;-51
2023/08/18 01:33:56;;;;;;;31.25;27.98;;;19.40;99.90;;;;;;5054290;28;20225;-50
2023/08/18 01:36:23;;;;;;;31.08;27.60;;;19.30;99.90;;;;;;5054425;28;20591;-50
2023/08/18 01:38:51;;;;;;;33.83;28.77;;;19.40;99.90;;;;;;5054195;28;20190;-52
2023/08/18 01:41:23;;;;;;;34.05;29.63;;;19.40;99.90;;;;;;5054330;28;20171;-49
2023/08/18 01:43:48;;;;;;;32.30;28.65;;;19.30;99.90;;;;;;5054131;28;20175;-52
2023/08/18 01:46:14;;;;;;;35.20;29.45;;;19.30;99.90;;;;;;5053913;28;20190;-51
2023/08/18 01:48:40;;;;;;;37.85;32.65;;;19.40;99.90;;;;;;5053983;28;20237;-51
2023/08/18 01:51:05;;;;;;;36.78;31.20;;;19.40;99.90;;;;;;5053965;28;20563;-52
2023/08/18 01:53:31;;;;;;;33.90;30.25;;;19.30;99.90;;;;;;5054345;28;20175;-51
2023/08/18 01:56:00;;;;;;;37.80;32.78;;;19.40;99.90;;;;;;5054054;28;20198;-52
2023/08/18 01:58:26;;;;;;;35.22;31.20;;;19.40;99.90;;;;;;5053964;28;20636;-50
2023/08/18 02:00:55;;;;;;;36.85;32.72;;;19.30;99.90;;;;;;5052493;28;20183;-51
2023/08/18 02:03:25;;;;;;;36.10;32.20;;;19.30;99.90;;;;;;5053740;28;20652;-52
2023/08/18 02:05:55;;;;;;;39.95;34.05;;;19.30;99.90;;;;;;5053618;28;20193;-51
2023/08/18 02:08:21;;;;;;;39.33;34.10;;;19.40;99.90;;;;;;5053824;28;20179;-49
2023/08/18 02:10:47;;;;;;;38.80;32.90;;;19.50;99.90;;;;;;5053779;28;20571;-49
2023/08/18 02:13:13;;;;;;;38.30;33.72;;;19.60;99.90;;;;;;5053524;28;20175;-49
2023/08/18 02:15:38;;;;;;;43.20;34.80;;;19.40;99.90;;;;;;5053597;28;20175;-51
2023/08/18 02:18:04;;;;;;;38.72;32.38;;;19.30;99.90;;;;;;5053540;28;20167;-51
2023/08/18 02:20:30;;;;;;;36.47;31.80;;;19.30;99.90;;;;;;5053660;28;20231;-47
2023/08/18 02:22:56;;;;;;;38.25;32.83;;;19.30;99.90;;;;;;5053530;28;20210;-51
2023/08/18 02:25:22;;;;;;;39.78;33.72;;;19.40;99.90;;;;;;5053529;28;20270;-51
2023/08/18 02:27:48;;;;;;;37.72;32.30;;;19.30;99.90;;;;;;5053599;28;20180;-50
2023/08/18 02:30:14;;;;;;;37.72;33.35;;;19.40;99.90;;;;;;5053384;28;20168;-53
2023/08/18 02:32:40;;;;;;;39.10;32.45;;;19.40;99.90;;;;;;5053259;28;20183;-49
2023/08/18 02:35:06;;;;;;;36.53;32.50;;;19.40;99.90;;;;;;5053175;28;20255;-49
2023/08/18 02:37:31;;;;;;;36.60;32.67;;;19.40;99.90;;;;;;5053368;28;20203;-50
2023/08/18 02:39:57;;;;;;;35.75;31.30;;;19.40;99.90;;;;;;5052883;28;20175;-47
2023/08/18 02:42:23;;;;;;;39.25;32.80;;;19.40;99.90;;;;;;5052997;28;20215;-47
2023/08/18 02:44:49;;;;;;;36.40;32.47;;;19.40;99.90;;;;;;5053125;28;20187;-50
2023/08/18 02:47:16;;;;;;;36.22;32.33;;;19.40;99.90;;;;;;5053118;28;20262;-48
2023/08/18 02:49:42;;;;;;;34.80;31.08;;;19.40;99.90;;;;;;5053325;28;20175;-51
2023/08/18 02:52:09;;;;;;;36.47;32.05;;;19.40;99.90;;;;;;5053185;28;20190;-47
2023/08/18 02:54:35;;;;;;;40.78;32.95;;;19.40;99.90;;;;;;5053200;28;20182;-51
2023/08/18 02:57:01;;;;;;;35.35;31.55;;;19.50;99.90;;;;;;5053239;28;20167;-50
2023/08/18 02:59:27;;;;;;;34.38;30.80;;;19.40;99.90;;;;;;5053162;28;20624;-48
2023/08/18 03:01:52;;;;;;;36.30;32.22;;;19.50;99.90;;;;;;5052898;28;20211;-51
2023/08/18 03:04:18;;;;;;;37.45;33.42;;;19.30;99.90;;;;;;5053191;28;20193;-51
2023/08/18 03:06:44;;;;;;;38.72;34.47;;;19.30;99.90;;;;;;5053067;28;20259;-50
2023/08/18 03:09:09;;;;;;;38.80;34.38;;;19.30;99.90;;;;;;5053159;28;20179;-51
2023/08/18 03:11:35;;;;;;;37.00;33.00;;;19.30;99.90;;;;;;5053019;28;20225;-52
2023/08/18 03:14:01;;;;;;;40.28;34.35;;;19.30;99.90;;;;;;5052891;28;20179;-51
2023/08/18 03:16:26;;;;;;;38.53;33.42;;;19.30;99.90;;;;;;5052815;28;20167;-52
2023/08/18 03:18:52;;;;;;;41.10;34.83;;;19.30;99.90;;;;;;5052766;28;20764;-51
2023/08/18 03:21:18;;;;;;;40.00;34.65;;;19.30;99.90;;;;;;5052972;28;20214;-52
2023/08/18 03:23:43;;;;;;;38.63;33.70;;;19.40;99.90;;;;;;5052909;28;20188;-50
2023/08/18 03:26:09;;;;;;;37.92;32.92;;;19.40;99.90;;;;;;5052707;28;20183;-51
2023/08/18 03:28:35;;;;;;;36.42;32.55;;;19.40;99.90;;;;;;5052856;28;20258;-52
2023/08/18 03:31:06;;;;;;;36.90;32.00;;;19.40;99.90;;;;;;5052746;28;20183;-52
2023/08/18 03:33:32;;;;;;;37.08;33.05;;;19.50;99.90;;;;;;5052617;28;20630;-53
2023/08/18 03:35:58;;;;;;;37.83;33.03;;;19.40;99.90;;;;;;5052826;28;20516;-51
2023/08/18 03:38:24;;;;;;;37.90;33.80;;;19.40;99.90;;;;;;5052756;28;20175;-53
2023/08/18 03:40:58;;;;;;;40.45;34.72;;;19.30;99.90;;;;;;5052718;28;20187;-52
2023/08/18 03:43:23;;;;;;;36.85;32.92;;;19.40;99.90;;;;;;5052641;28;20668;-50
2023/08/18 03:45:49;;;;;;;41.22;35.47;;;19.40;99.90;;;;;;5052477;28;20183;-50
2023/08/18 03:48:15;;;;;;;36.25;32.35;;;19.50;99.90;;;;;;5052730;28;20233;-51
2023/08/18 03:50:41;;;;;;;37.00;33.13;;;19.40;99.90;;;;;;5052679;28;20233;-49
2023/08/18 03:53:07;;;;;;;37.67;33.50;;;19.50;99.90;;;;;;5055587;28;20171;-49
2023/08/18 03:55:33;;;;;;;36.67;32.53;;;19.40;99.90;;;;;;5056171;28;20549;-50
2023/08/18 03:57:58;;;;;;;38.33;33.92;;;19.40;99.90;;;;;;5056099;28;20344;-50
2023/08/18 04:00:24;;;;;;;39.60;35.47;;;19.40;99.90;;;;;;5056033;28;20506;-48
2023/08/18 04:02:50;;;;;;;40.10;34.20;;;19.50;99.90;;;;;;5056167;28;20206;-53
2023/08/18 04:05:16;;;;;;;39.00;34.22;;;19.40;99.90;;;;;;5056176;28;20214;-50
2023/08/18 04:07:41;;;;;;;37.22;33.22;;;19.40;99.90;;;;;;5055883;28;20532;-49
2023/08/18 04:10:07;;;;;;;37.78;33.85;;;19.40;99.90;;;;;;5055935;28;20176;-50
2023/08/18 04:12:34;;;;;;;36.97;33.10;;;19.30;99.90;;;;;;5055754;28;20222;-48
2023/08/18 04:15:00;;;;;;;38.28;34.20;;;19.30;99.90;;;;;;5055758;28;20183;-51
2023/08/18 04:17:26;;;;;;;36.88;32.92;;;19.20;99.90;;;;;;5055950;28;20309;-51
2023/08/18 04:19:51;;;;;;;37.92;33.38;;;19.20;99.90;;;;;;5055783;28;20787;-51
2023/08/18 04:22:17;;;;;;;37.60;32.97;;;19.20;99.90;;;;;;5055751;28;20210;-51
2023/08/18 04:24:43;;;;;;;35.60;31.85;;;19.20;99.90;;;;;;5055647;28;20274;-51
2023/08/18 04:27:08;;;;;;;34.85;30.98;;;19.30;99.90;;;;;;5055578;28;20171;-50
2023/08/18 04:29:34;;;;;;;35.53;31.48;;;19.40;99.90;;;;;;5055520;28;20184;-49
2023/08/18 04:31:59;;;;;;;34.10;30.60;;;19.30;99.90;;;;;;5055716;28;20213;-49
2023/08/18 04:34:25;;;;;;;35.30;31.70;;;19.30;99.90;;;;;;5055567;28;20241;-51
2023/08/18 04:36:51;;;;;;;33.58;29.90;;;19.20;99.90;;;;;;5055451;28;20172;-51
2023/08/18 04:39:17;;;;;;;34.20;30.55;;;19.30;99.90;;;;;;5055460;28;20585;-50
2023/08/18 04:41:42;;;;;;;31.67;28.25;;;19.30;99.90;;;;;;5053997;28;20195;-49
2023/08/18 04:44:08;;;;;;;32.45;29.15;;;19.40;99.90;;;;;;5055145;28;20183;-52
2023/08/18 04:46:34;;;;;;;32.20;28.60;;;19.30;99.90;;;;;;5055273;28;20532;-48
2023/08/18 04:48:59;;;;;;;31.00;27.65;;;19.30;99.90;;;;;;5055304;28;20179;-53
2023/08/18 04:51:27;;;;;;;34.40;30.25;;;19.40;99.90;;;;;;5055261;28;20535;-52
2023/08/18 04:53:52;;;;;;;30.63;27.50;;;19.30;99.90;;;;;;5055113;28;20176;-52
2023/08/18 04:56:18;;;;;;;32.13;28.35;;;19.30;99.90;;;;;;5055012;28;20679;-52
2023/08/18 04:58:44;;;;;;;33.00;28.58;;;19.30;99.90;;;;;;5054927;28;20171;-52
2023/08/18 05:01:09;;;;;;;34.13;29.85;;;19.30;99.90;;;;;;5054898;28;20178;-51
2023/08/18 05:03:35;;;;;;;30.88;27.67;;;19.20;99.90;;;;;;5054361;28;20210;-54
2023/08/18 05:06:08;;;;;;;32.80;28.40;;;19.20;99.90;;;;;;5054931;28;20186;-53
2023/08/18 05:08:35;;;;;;;34.30;30.48;;;19.20;99.90;;;;;;5054791;28;20537;-53
2023/08/18 05:11:08;;;;;;;32.38;29.08;;;19.10;99.90;;;;;;5055050;28;20257;-53
2023/08/18 05:13:35;;;;;;;31.48;28.17;;;19.20;99.90;;;;;;5054682;28;20180;-49
2023/08/18 05:16:01;;;;;;;32.28;28.17;;;19.20;99.90;;;;;;5054871;28;20182;-51
2023/08/18 05:18:29;;;;;;;33.35;29.38;;;19.20;99.90;;;;;;5054479;28;20182;-51
2023/08/18 05:20:56;;;;;;;35.20;29.27;;;19.20;99.90;;;;;;5054865;28;20221;-52
2023/08/18 05:23:22;;;;;;;33.75;29.40;;;19.20;99.90;;;;;;5054483;28;20583;-51
2023/08/18 05:25:48;;;;;;;34.97;30.38;;;19.10;99.90;;;;;;5054405;28;20177;-52
2023/08/18 05:28:14;;;;;;;33.90;29.00;;;19.10;99.90;;;;;;5054322;28;20540;-51
2023/08/18 05:30:50;;;;;;;34.35;28.90;;;19.20;99.90;;;;;;5054321;28;20640;-49
2023/08/18 05:33:16;;;;;;;34.85;29.48;;;19.10;99.90;;;;;;5054272;28;20266;-51
2023/08/18 05:35:43;;;;;;;38.13;31.60;;;19.00;99.90;;;;;;5054261;28;20625;-49
2023/08/18 05:38:12;;;;;;;38.47;31.00;;;19.10;99.90;;;;;;5054248;28;20182;-50
2023/08/18 05:41:06;;;;;;;36.95;30.52;;;19.00;99.90;;;;;;5054070;28;20172;-52
2023/08/18 05:43:34;;;;;;;35.80;29.95;;;19.00;99.90;;;;;;5054239;28;20294;-51
2023/08/18 05:45:59;;;;;;;37.08;31.05;;;19.00;99.90;;;;;;5054052;28;20226;-52
2023/08/18 05:48:25;;;;;;;38.75;33.10;;;19.10;99.90;;;;;;5054005;28;20171;-51
2023/08/18 05:50:51;;;;;;;38.08;31.83;;;19.00;99.90;;;;;;5053737;28;20187;-53
2023/08/18 05:53:16;;;;;;;40.47;33.03;;;19.00;99.90;;;;;;5054127;28;20180;-53
2023/08/18 05:55:44;;;;;;;38.13;32.88;;;19.00;99.90;;;;;;5053923;28;20180;-50
2023/08/18 05:58:10;;;;;;;39.05;33.03;;;19.00;99.90;;;;;;5052943;28;20176;-50
2023/08/18 06:00:36;;;;;;;41.13;32.28;;;19.10;99.90;;;;;;5053256;28;20175;-50
2023/08/18 06:03:02;;;;;;;40.00;32.28;;;19.20;99.90;;;;;;5053078;28;20199;-53
2023/08/18 06:05:28;;;;;;;36.35;30.67;;;19.20;99.90;;;;;;5053096;28;20294;-52
2023/08/18 06:07:54;;;;;;;41.63;33.60;;;19.20;99.90;;;;;;5053020;28;20179;-51
2023/08/18 06:10:20;;;;;;;41.67;32.72;;;19.20;99.90;;;;;;5053207;28;20180;-50
2023/08/18 06:12:46;;;;;;;37.45;32.63;;;19.10;99.90;;;;;;5051970;28;20274;-52
2023/08/18 06:15:12;;;;;;;41.95;33.00;;;19.20;99.90;;;;;;5052115;28;20186;-50
2023/08/18 06:17:38;;;;;;;41.80;33.95;;;19.10;99.90;;;;;;5052890;28;20182;-48
2023/08/18 06:20:04;;;;;;;48.17;35.92;;;19.20;99.90;;;;;;5052825;28;20219;-53
2023/08/18 06:22:30;;;;;;;45.63;36.60;;;19.10;99.90;;;;;;5053290;28;20214;-53
2023/08/18 06:24:56;;;;;;;47.67;36.58;;;19.20;99.90;;;;;;5053494;28;20183;-49
2023/08/18 06:27:21;;;;;;;46.60;35.30;;;19.20;99.90;;;;;;5053301;28;20182;-52
2023/08/18 06:29:47;;;;;;;49.28;36.13;;;19.30;99.90;;;;;;5052518;28;20183;-51
2023/08/18 06:32:13;;;;;;;48.35;36.20;;;19.10;99.90;;;;;;5051521;28;20175;-52
2023/08/18 06:34:38;;;;;;;49.88;37.60;;;19.10;99.90;;;;;;5051164;28;20262;-52
2023/08/18 06:37:04;;;;;;;52.03;38.28;;;19.00;99.90;;;;;;5051849;28;20214;-52
2023/08/18 06:39:30;;;;;;;52.00;37.10;;;19.00;99.90;;;;;;5052558;28;20672;-52
2023/08/18 06:41:55;;;;;;;54.85;37.78;;;19.10;99.90;;;;;;5052370;28;20286;-53
2023/08/18 06:44:21;;;;;;;52.13;37.13;;;19.00;99.90;;;;;;5052898;28;20194;-52
2023/08/18 06:46:47;;;;;;;50.38;36.58;;;19.00;99.90;;;;;;5052483;28;20521;-53
2023/08/18 06:49:13;;;;;;;51.85;38.15;;;19.00;99.90;;;;;;5047073;28;20206;-53
2023/08/18 06:51:39;;;;;;;50.90;37.30;;;19.00;99.90;;;;;;5052818;28;20878;-47
2023/08/18 06:54:05;;;;;;;50.58;36.67;;;19.00;99.90;;;;;;5052883;28;20175;-52
2023/08/18 06:56:30;;;;;;;52.75;38.30;;;19.10;99.90;;;;;;5053162;28;20274;-52
2023/08/18 06:58:56;;;;;;;52.28;37.38;;;19.10;99.90;;;;;;5052552;28;20687;-52
2023/08/18 07:01:22;;;;;;;52.70;37.22;;;19.10;99.90;;;;;;5052888;28;20636;-52
2023/08/18 07:03:50;;;;;;;51.17;36.38;;;19.00;99.90;;;;;;5051462;28;20302;-52
2023/08/18 07:06:16;;;;;;;51.75;37.38;;;19.20;99.90;;;;;;5052634;28;20171;-51
2023/08/18 07:08:41;;;;;;;54.25;37.97;;;19.20;99.90;;;;;;5052978;28;20263;-53
2023/08/18 07:11:07;;;;;;;54.38;38.40;;;19.30;99.90;;;;;;5052569;28;20183;-52
2023/08/18 07:13:32;;;;;;;52.78;37.47;;;19.30;99.90;;;;;;5052647;28;20175;-52
2023/08/18 07:15:58;;;;;;;55.17;38.63;;;19.20;99.90;;;;;;5052650;28;20172;-51
2023/08/18 07:18:24;;;;;;;50.78;37.13;;;19.20;99.90;;;;;;5052496;28;20178;-50
2023/08/18 07:20:50;;;;;;;50.33;36.53;;;19.20;99.90;;;;;;5052518;28;20644;-51
2023/08/18 07:23:15;;;;;;;52.45;36.05;;;19.30;99.90;;;;;;5052630;28;20215;-52
2023/08/18 07:25:42;;;;;;;50.70;37.58;;;19.40;99.90;;;;;;5052590;28;20183;-52
2023/08/18 07:28:08;;;;;;;54.03;37.75;;;19.30;99.90;;;;;;5055641;28;20229;-49
2023/08/18 07:30:33;;;;;;;51.58;37.63;;;19.30;99.90;;;;;;5056414;28;20183;-50
2023/08/18 07:32:59;;;;;;;56.15;38.38;;;19.30;99.90;;;;;;5056382;28;20183;-52
2023/08/18 07:35:25;;;;;;;54.55;35.97;;;19.30;99.90;;;;;;5054931;28;20175;-53
2023/08/18 07:37:52;;;;;;;48.33;35.08;;;19.30;99.90;;;;;;5056447;28;20172;-53
2023/08/18 07:40:18;;;;;;;52.22;35.65;;;19.40;99.90;;;;;;5056347;28;20171;-52
2023/08/18 07:42:44;;;;;;;49.60;35.20;;;19.40;99.90;;;;;;5049197;28;20298;-52
2023/08/18 07:45:10;;;;;;;49.47;35.35;;;19.40;99.90;;;;;;5056112;28;20179;-49
2023/08/18 07:47:42;;;;;;;48.97;34.97;;;19.40;99.90;;;;;;5056251;28;20517;-51
2023/08/18 07:50:11;;;;;;;50.03;35.15;;;19.30;99.90;;;;;;5056422;28;20179;-52
2023/08/18 07:52:38;;;;;;;44.63;32.53;;;19.40;99.90;;;;;;5055874;28;20245;-50
2023/08/18 07:55:05;;;;;;;41.50;30.13;;;19.40;99.90;;;;;;5055713;28;20180;-53
2023/08/18 07:57:31;;;;;;;38.85;29.02;;;19.30;99.90;;;;;;5055717;28;20172;-51
2023/08/18 07:59:57;;;;;;;43.25;30.75;;;19.40;99.90;;;;;;5055837;28;20190;-51
2023/08/18 08:02:22;;;;;;;42.20;30.83;;;19.50;99.90;;;;;;5055532;28;20202;-50
2023/08/18 08:04:50;;;;;;;40.10;30.20;;;19.50;99.90;;;;;;5055885;28;20171;-52
2023/08/18 08:07:16;;;;;;;40.65;29.50;;;19.50;99.90;;;;;;5055838;28;20243;-52
2023/08/18 08:09:42;;;;;;;41.55;27.70;;;19.50;99.90;;;;;;5055699;28;20175;-50
2023/08/18 08:12:07;;;;;;;42.53;29.75;;;19.60;99.90;;;;;;5055368;28;20215;-49
2023/08/18 08:14:33;;;;;;;38.50;28.15;;;19.50;99.90;;;;;;5055660;28;20629;-53
2023/08/18 08:16:59;;;;;;;40.47;28.15;;;19.40;99.90;;;;;;5055497;28;20183;-52
2023/08/18 08:19:25;;;;;;;41.97;30.20;;;19.50;99.90;;;;;;5054107;28;20696;-51
2023/08/18 08:21:52;;;;;;;42.63;32.83;;;19.50;99.90;;;;;;5055189;28;20203;-54
2023/08/18 08:24:18;;;;;;;45.83;33.22;;;19.60;99.90;;;;;;5055248;28;20538;-54
2023/08/18 08:26:44;;;;;;;44.10;31.83;;;19.60;99.90;;;;;;5055485;28;20258;-52
2023/08/18 08:29:09;;;;;;;39.55;29.92;;;19.50;99.90;;;;;;5055497;28;20187;-52
2023/08/18 08:31:36;;;;;;;45.13;32.33;;;19.60;99.90;;;;;;5055165;28;20175;-51
2023/08/18 08:34:02;;;;;;;45.85;32.63;;;19.60;99.90;;;;;;5055281;28;20171;-53
2023/08/18 08:36:32;;;;;;;40.10;29.48;;;19.70;99.90;;;;;;5055008;28;20694;-53
2023/08/18 08:38:59;;;;;;;44.95;32.97;;;19.80;99.90;;;;;;5054020;28;20179;-53
2023/08/18 08:41:25;;;;;;;43.50;29.67;;;19.90;99.90;;;;;;5054727;28;20190;-52
2023/08/18 08:43:51;;;;;;;42.58;34.08;;;19.90;99.90;;;;;;5054912;28;20203;-51
2023/08/18 08:46:17;;;;;;;45.60;33.55;;;20.00;99.90;;;;;;5054836;28;20177;-52
2023/08/18 08:48:46;;;;;;;44.85;33.85;;;20.10;99.90;;;;;;5055194;28;20282;-50
2023/08/18 08:51:14;;;;;;;47.92;35.50;;;20.00;99.90;;;;;;5054947;28;20164;-51
2023/08/18 08:53:45;;;;;;;45.72;34.95;;;20.00;99.90;;;;;;5054689;28;20190;-53
2023/08/18 08:56:13;;;;;;;45.75;33.65;;;20.10;99.90;;;;;;5054803;28;20168;-53
2023/08/18 08:58:39;;;;;;;50.10;35.95;;;20.10;99.90;;;;;;5054324;28;20668;-53
2023/08/18 09:01:08;;;;;;;47.55;34.75;;;20.20;99.90;;;;;;5054935;28;20189;-49
2023/08/18 09:03:34;;;;;;;49.67;36.30;;;20.20;99.90;;;;;;5054568;28;20257;-53
2023/08/18 09:05:59;;;;;;;49.63;36.75;;;20.30;99.90;;;;;;5054782;28;20651;-49
2023/08/18 09:08:25;;;;;;;51.10;38.38;;;20.30;99.90;;;;;;5054624;28;20180;-52
2023/08/18 09:10:51;;;;;;;48.95;37.13;;;20.30;99.90;;;;;;5054545;28;20264;-51
2023/08/18 09:13:17;;;;;;;51.08;39.08;;;20.40;99.90;;;;;;5054491;28;20532;-54
2023/08/18 09:15:44;;;;;;;49.97;37.05;;;20.40;99.90;;;;;;5054659;28;20206;-51
2023/08/18 09:18:14;;;;;;;52.90;39.47;;;20.50;99.90;;;;;;5054496;28;20214;-52
2023/08/18 09:20:42;;;;;;;55.33;39.85;;;20.50;99.90;;;;;;5054313;28;20239;-50
2023/08/18 09:23:08;;;;;;;47.85;37.95;;;20.50;99.90;;;;;;5053925;28;20560;-52
2023/08/18 09:25:34;;;;;;;45.17;34.97;;;20.50;99.90;;;;;;5053553;28;20190;-51
2023/08/18 09:28:03;;;;;;;42.58;33.53;;;20.50;99.90;;;;;;5054059;28;20174;-53
2023/08/18 09:30:30;;;;;;;47.60;36.22;;;20.30;99.90;;;;;;5053753;28;20237;-54
2023/08/18 09:32:59;;;;;;;47.13;34.97;;;20.20;99.90;;;;;;5054142;28;20207;-53
2023/08/18 09:35:25;;;;;;;52.95;39.45;;;20.40;99.90;;;;;;5053954;28;20191;-51
2023/08/18 09:37:57;;;;;;;49.58;38.28;;;20.50;99.90;;;;;;5053923;28;20231;-52
2023/08/18 09:40:24;;;;;;;46.00;37.53;;;20.30;99.90;;;;;;5053622;28;20206;-50
2023/08/18 09:42:50;;;;;;;48.17;37.30;;;20.40;99.90;;;;;;5053752;28;20268;-53
2023/08/18 09:45:15;;;;;;;41.17;36.33;;;20.50;99.90;;;;;;5053869;28;20180;-54
2023/08/18 09:47:44;;;;;;;43.58;36.45;;;20.50;99.90;;;;;;5053783;28;20175;-49
2023/08/18 09:50:10;;;;;;;43.10;34.63;;;20.40;99.90;;;;;;5053612;28;20180;-52
2023/08/18 09:52:41;;;;;;;45.78;36.65;;;20.40;99.90;;;;;;5053654;28;20661;-53
2023/08/18 09:55:12;;;;;;;45.72;35.38;;;20.50;99.90;;;;;;5053381;28;20199;-54
2023/08/18 09:58:06;;;;;;;45.80;35.42;;;20.50;99.90;;;;;;5053691;28;20207;-52
2023/08/18 10:00:34;;;;;;;39.17;32.80;;;20.50;99.90;;;;;;5053605;28;20171;-51
2023/08/18 10:03:03;;;;;;;34.60;29.80;;;20.40;99.90;;;;;;5053062;28;20199;-52
2023/08/18 10:05:29;;;;;;;38.38;29.50;;;20.50;99.90;;;;;;5053275;28;20191;-52
2023/08/18 10:07:55;;;;;;;35.85;29.90;;;20.70;99.90;;;;;;5053658;28;20180;-52
2023/08/18 10:10:22;;;;;;;37.13;29.05;;;20.70;99.90;;;;;;5053215;28;20509;-49
2023/08/18 10:12:49;;;;;;;32.58;27.38;;;20.90;99.90;;;;;;5053457;28;20175;-51
2023/08/18 10:15:15;;;;;;;36.35;28.90;;;20.80;99.90;;;;;;5053283;28;20252;-52
2023/08/18 10:17:42;;;;;;;33.45;27.88;;;21.00;99.90;;;;;;5053144;28;20179;-50
2023/08/18 10:20:11;;;;;;;33.08;27.95;;;21.00;99.90;;;;;;5053112;28;20571;-53
2023/08/18 10:22:37;;;;;;;39.13;26.92;;;21.10;99.90;;;;;;5053267;28;20301;-55
2023/08/18 10:25:06;;;;;;;32.47;27.33;;;21.20;99.90;;;;;;5053213;28;20218;-53
2023/08/18 10:27:35;;;;;;;30.55;26.13;;;21.20;99.90;;;;;;5033271;28;20180;-53
2023/08/18 10:30:23;;;;;;;33.45;24.60;;;21.30;99.90;;;;;;5033099;28;20532;-50
2023/08/18 10:32:50;;;;;;;32.00;24.77;;;21.50;99.90;;;;;;5032977;28;20576;-49
2023/08/18 10:35:23;;;;;;;30.40;26.05;;;21.60;99.90;;;;;;5033212;28;20215;-50
2023/08/18 10:37:50;;;;;;;28.88;25.67;;;21.50;99.90;;;;;;5033675;28;20175;-51
2023/08/18 10:40:31;;;;;;;28.98;24.30;;;21.50;99.90;;;;;;5047365;28;20179;-52
2023/08/18 10:43:13;;;;;;;30.40;24.10;;;21.50;99.90;;;;;;5052889;28;20245;-53
2023/08/18 10:45:42;;;;;;;29.73;24.10;;;21.60;99.90;;;;;;5053375;28;20167;-50
2023/08/18 10:48:09;;;;;;;27.90;23.75;;;21.70;99.90;;;;;;5052684;28;20218;-52
2023/08/18 10:50:37;;;;;;;28.33;24.20;;;21.80;99.90;;;;;;5052597;28;20171;-51
2023/08/18 10:53:04;;;;;;;29.48;25.20;;;21.70;99.90;;;;;;5052492;28;20188;-51
2023/08/18 10:55:31;;;;;;;28.25;23.95;;;21.80;99.90;;;;;;5052285;28;20266;-54
2023/08/18 10:57:57;;;;;;;33.58;25.92;;;21.90;99.90;;;;;;5052783;28;20524;-49
2023/08/18 11:00:23;;;;;;;31.02;25.05;;;22.10;99.90;;;;;;5052450;28;20199;-53
2023/08/18 11:02:50;;;;;;;31.42;25.20;;;22.40;99.90;;;;;;5055340;28;20564;-53
2023/08/18 11:05:22;;;;;;;32.13;26.33;;;22.60;99.90;;;;;;5056672;28;20225;-53
2023/08/18 11:07:50;;;;;;;33.00;27.02;;;22.60;99.90;;;;;;5054474;28;20208;-49
2023/08/18 11:10:23;;;;;;;37.88;28.15;;;22.70;99.90;;;;;;5056476;28;20246;-49
2023/08/18 11:12:53;;;;;;;31.33;24.65;;;22.70;99.90;;;;;;5054660;28;20183;-51
2023/08/18 11:15:21;;;;;;;29.73;24.95;;;22.80;99.90;;;;;;5056428;28;20254;-52
2023/08/18 11:17:48;;;;;;;33.33;25.50;;;22.80;99.90;;;;;;5056486;28;20694;-51
2023/08/18 11:20:14;;;;;;;28.15;23.63;;;22.60;99.90;;;;;;5055133;28;20545;-51
2023/08/18 11:22:41;;;;;;;27.85;23.60;;;22.60;99.90;;;;;;5054887;28;20300;-52
2023/08/18 11:25:11;;;;;;;32.08;24.58;;;22.50;99.90;;;;;;5056226;28;20182;-52
2023/08/18 11:27:40;;;;;;;30.58;25.33;;;22.50;99.90;;;;;;5055785;28;20211;-52
2023/08/18 11:30:10;;;;;;;32.83;25.27;;;22.60;99.90;;;;;;5056283;28;20182;-52
2023/08/18 11:32:39;;;;;;;29.27;25.48;;;22.70;99.90;;;;;;5056034;28;20175;-51
2023/08/18 11:35:12;;;;;;;35.28;28.80;;;22.50;99.90;;;;;;5056056;28;20175;-52
2023/08/18 11:37:40;;;;;;;39.58;30.33;;;22.60;99.90;;;;;;5053752;28;20168;-53
2023/08/18 11:40:12;;;;;;;36.13;29.95;;;22.60;99.90;;;;;;5056074;28;20540;-51
2023/08/18 11:42:41;;;;;;;35.80;29.50;;;22.60;99.90;;;;;;5053278;28;20195;-53
2023/08/18 11:45:09;;;;;;;38.42;30.13;;;22.60;99.90;;;;;;5055926;28;20185;-51
2023/08/18 11:47:36;;;;;;;37.53;29.10;;;22.60;99.90;;;;;;5055741;28;20163;-50
2023/08/18 11:50:06;;;;;;;36.50;28.38;;;22.70;99.90;;;;;;5055875;28;20218;-50
2023/08/18 11:52:41;;;;;;;33.33;26.83;;;22.70;99.90;;;;;;5055860;28;20179;-52
2023/08/18 11:55:08;;;;;;;31.25;24.90;;;22.90;99.90;;;;;;5055596;28;20171;-51
2023/08/18 11:57:34;;;;;;;30.55;25.67;;;23.10;99.90;;;;;;5055603;28;20182;-49
2023/08/18 11:59:59;;;;;;;31.13;25.58;;;23.40;99.90;;;;;;5055561;28;20707;-50
2023/08/18 12:02:26;;;;;;;32.65;25.73;;;23.50;99.90;;;;;;5055689;28;20199;-52
2023/08/18 12:04:52;;;;;;;30.75;25.00;;;23.60;99.90;;;;;;5055480;28;20187;-52
2023/08/18 12:07:18;;;;;;;29.05;24.33;;;23.60;99.90;;;;;;5055537;28;20254;-51
2023/08/18 12:09:45;;;;;;;30.80;25.45;;;23.80;99.90;;;;;;5055448;28;20684;-51
2023/08/18 12:12:15;;;;;;;29.83;23.35;;;23.80;99.90;;;;;;5055215;28;20207;-51
2023/08/18 12:14:41;;;;;;;29.30;23.02;;;23.90;99.90;;;;;;5052961;28;20182;-52
2023/08/18 12:17:07;;;;;;;30.17;23.20;;;23.80;99.90;;;;;;5055330;28;20171;-51
2023/08/18 12:19:33;;;;;;;31.13;24.02;;;23.80;99.90;;;;;;5054998;28;20227;-51
2023/08/18 12:21:58;;;;;;;32.45;23.90;;;24.10;99.90;;;;;;5055223;28;20195;-52
2023/08/18 12:24:24;;;;;;;28.67;22.67;;;24.20;99.90;;;;;;5055101;28;20489;-48
2023/08/18 12:26:50;;;;;;;27.88;22.10;;;24.20;99.90;;;;;;5054966;28;20179;-51